Time;durP1;ratioP1;P1;durP2;ratioP2;P2;SDS_P1;SDS_P2;PMS_P1;PMS_P2;Temp;Humidity;BMP_temperature;BMP_pressure;BME280_temperature;BME280_humidity;BME280_pressure;Samples;Min_cycle;Max_cycle;Signal;HPM_P1;HPM_P2
2023/07/26 00:01:26;;;;;;;;;;;16.40;74.30;;;;;;4970278;28;19971;-84
2023/07/26 00:03:55;;;;;;;;;;;16.40;74.30;;;;;;4968963;28;19922;-83
2023/07/26 00:06:21;;;;;;;;;;;16.40;74.30;;;;;;4937203;28;19921;-84
2023/07/26 00:08:46;;;;;;;;;;;16.30;74.30;;;;;;4952871;28;20283;-83
2023/07/26 00:11:12;;;;;;;;;;;16.30;74.30;;;;;;4968645;28;19914;-84
2023/07/26 00:13:37;;;;;;;;;;;16.30;74.30;;;;;;4938277;28;20285;-83
2023/07/26 00:16:03;;;;;;;;;;;16.30;74.30;;;;;;4970641;28;19915;-83
2023/07/26 00:18:29;;;;;;;;;;;16.20;74.20;;;;;;4969780;28;19928;-83
2023/07/26 00:20:54;;;;;;;;;;;16.20;74.20;;;;;;4952697;28;19922;-83
2023/07/26 00:23:20;;;;;;;;;;;16.20;74.20;;;;;;4969031;28;20005;-84
2023/07/26 00:25:45;;;;;;;;;;;16.20;74.30;;;;;;4969607;28;19922;-84
2023/07/26 00:28:11;;;;;;;;;;;16.10;74.20;;;;;;4952365;28;19925;-84
2023/07/26 00:30:36;;;;;;;;;;;16.10;74.20;;;;;;4969691;28;19922;-84
2023/07/26 00:33:02;;;;;;;;;;;16.10;74.30;;;;;;4968546;28;19922;-83
2023/07/26 00:35:35;;;;;;;;;;;16.00;74.20;;;;;;4952293;28;19914;-84
2023/07/26 00:38:01;;;;;;;;;;;16.00;74.20;;;;;;4969819;28;20515;-84
2023/07/26 00:40:26;;;;;;;;;;;16.00;74.30;;;;;;4970001;28;20029;-84
2023/07/26 00:42:52;;;;;;;;;;;16.00;74.30;;;;;;4969575;28;19918;-83
2023/07/26 00:45:17;;;;;;;;;;;16.00;74.40;;;;;;4969459;28;19954;-83
2023/07/26 00:47:43;;;;;;;;;;;15.90;74.30;;;;;;4952208;28;20359;-82
2023/07/26 00:50:09;;;;;;;;;;;16.00;74.30;;;;;;4951953;28;20286;-82
2023/07/26 00:52:35;;;;;;;;;;;15.90;74.30;;;;;;4969220;28;19910;-83
2023/07/26 00:55:02;;;;;;;;;;;15.90;74.30;;;;;;4951933;28;19933;-83
2023/07/26 00:57:31;;;;;;;;;;;15.90;74.30;;;;;;4969596;28;19914;-83
2023/07/26 00:59:57;;;;;;;;;;;15.90;74.30;;;;;;4969562;28;19949;-83
2023/07/26 01:02:23;;;;;;;;;;;15.90;74.30;;;;;;4952315;28;19961;-83
2023/07/26 01:04:48;;;;;;;;;;;15.80;74.30;;;;;;4969437;28;20005;-83
2023/07/26 01:07:17;;;;;;;;;;;15.80;74.30;;;;;;4952374;28;19921;-83
2023/07/26 01:09:51;;;;;;;;;;;15.80;74.30;;;;;;4952122;28;19917;-83
2023/07/26 01:12:22;;;;;;;;;;;15.70;74.20;;;;;;4969538;28;20396;-83
2023/07/26 01:14:53;;;;;;;;;;;15.70;74.20;;;;;;4969607;28;19933;-83
2023/07/26 01:17:18;;;;;;;;;;;15.70;74.20;;;;;;4969747;28;19910;-83
2023/07/26 01:19:44;;;;;;;;;;;15.70;74.20;;;;;;4952621;28;19925;-83
2023/07/26 01:22:10;;;;;;;;;;;15.70;74.20;;;;;;4969798;28;20004;-83
2023/07/26 01:24:35;;;;;;;;;;;15.70;74.20;;;;;;4936260;28;20457;-83
2023/07/26 01:27:01;;;;;;;;;;;15.70;74.20;;;;;;4969785;28;19910;-83
2023/07/26 01:29:26;;;;;;;;;;;15.70;74.20;;;;;;4955119;28;19932;-83
2023/07/26 01:31:52;;;;;;;;;;;15.70;74.20;;;;;;4969779;28;19914;-83
2023/07/26 01:34:18;;;;;;;;;;;15.60;74.20;;;;;;4953103;28;20004;-83
2023/07/26 01:36:45;;;;;;;;;;;15.60;74.20;;;;;;4972281;28;19937;-83
2023/07/26 01:39:11;;;;;;;;;;;15.60;74.20;;;;;;4972911;28;19933;-83
2023/07/26 01:41:37;;;;;;;;;;;15.60;74.20;;;;;;4956212;28;20359;-83
2023/07/26 01:44:02;;;;;;;;;;;15.50;74.20;;;;;;4955728;28;19918;-83
2023/07/26 01:46:28;;;;;;;;;;;15.50;74.20;;;;;;4980965;28;19921;-83
2023/07/26 01:48:54;;;;;;;;;;;15.50;74.20;;;;;;4982518;28;20393;-82
2023/07/26 01:51:19;;;;;;;;;;;15.50;74.20;;;;;;4973122;28;19914;-83
2023/07/26 01:53:45;;;;;;;;;;;15.50;74.20;;;;;;4955355;28;19922;-83
2023/07/26 01:56:10;;;;;;;;;;;15.50;74.20;;;;;;4973205;28;19918;-83
2023/07/26 01:58:36;;;;;;;;;;;15.50;74.20;;;;;;4973138;28;19916;-83
2023/07/26 02:01:02;;;;;;;;;;;15.50;74.20;;;;;;4954931;28;20023;-83
2023/07/26 02:03:28;;;;;;;;;;;15.50;74.20;;;;;;4972400;28;19914;-84
2023/07/26 02:05:54;;;;;;;;;;;15.50;74.20;;;;;;4972345;28;20155;-83
2023/07/26 02:08:19;;;;;;;;;;;15.50;74.20;;;;;;4972464;28;19921;-83
2023/07/26 02:10:45;;;;;;;;;;;15.40;74.20;;;;;;4972739;28;20356;-83
2023/07/26 02:13:11;;;;;;;;;;;15.40;74.20;;;;;;4972410;28;19958;-83
2023/07/26 02:15:36;;;;;;;;;;;15.40;74.20;;;;;;4972641;28;19936;-83
2023/07/26 02:18:02;;;;;;;;;;;15.40;74.30;;;;;;4955624;28;20338;-83
2023/07/26 02:20:28;;;;;;;;;;;15.40;74.30;;;;;;4972478;28;19914;-83
2023/07/26 02:22:53;;;;;;;;;;;15.30;74.30;;;;;;4954947;28;19921;-83
2023/07/26 02:25:19;;;;;;;;;;;15.30;74.30;;;;;;4972524;28;20013;-83
2023/07/26 02:27:45;;;;;;;;;;;15.40;74.40;;;;;;4972664;28;19970;-83
2023/07/26 02:30:10;;;;;;;;;;;15.40;74.40;;;;;;4952355;29;20028;-83
2023/07/26 02:32:36;;;;;;;;;;;15.40;74.40;;;;;;4936249;29;19914;-83
2023/07/26 02:35:01;;;;;;;;;;;15.40;74.30;;;;;;4952992;29;19923;-83
2023/07/26 02:37:27;;;;;;;;;;;15.40;74.30;;;;;;4952774;29;19922;-83
2023/07/26 02:39:53;;;;;;;;;;;15.40;74.80;;;;;;4953238;29;19914;-83
2023/07/26 02:42:18;;;;;;;;;;;15.50;74.40;;;;;;4952764;28;19937;-83
2023/07/26 02:44:45;;;;;;;;;;;15.50;74.40;;;;;;4934980;29;20020;-82
2023/07/26 02:47:10;;;;;;;;;;;15.40;74.30;;;;;;4934064;29;20014;-83
2023/07/26 02:49:36;;;;;;;;;;;15.40;74.30;;;;;;4950816;29;20398;-83
2023/07/26 02:52:01;;;;;;;;;;;15.40;74.30;;;;;;4952016;29;19946;-83
2023/07/26 02:54:27;;;;;;;;;;;15.40;74.80;;;;;;4952144;28;19914;-83
2023/07/26 02:56:53;;;;;;;;;;;15.40;74.30;;;;;;4935050;29;19922;-83
2023/07/26 02:59:18;;;;;;;;;;;15.40;74.30;;;;;;4952202;29;20050;-83
2023/07/26 03:01:44;;;;;;;;;;;15.40;74.30;;;;;;4952726;29;20408;-83
2023/07/26 03:04:13;;;;;;;;;;;15.30;74.30;;;;;;4952595;28;19915;-83
2023/07/26 03:06:40;;;;;;;;;;;15.40;74.40;;;;;;4951950;29;19917;-83
2023/07/26 03:09:05;;;;;;;;;;;15.40;74.40;;;;;;4952255;29;19918;-84
2023/07/26 03:11:31;;;;;;;;;;;15.40;74.40;;;;;;4950411;29;19995;-83
2023/07/26 03:13:57;;;;;;;;;;;15.40;74.40;;;;;;4951835;28;20006;-83
2023/07/26 03:16:22;;;;;;;;;;;15.40;74.40;;;;;;4950500;29;19915;-83
2023/07/26 03:18:48;;;;;;;;;;;15.30;74.30;;;;;;4934552;29;19915;-83
2023/07/26 03:21:14;;;;;;;;;;;15.30;74.40;;;;;;4951764;29;19937;-83
2023/07/26 03:23:39;;;;;;;;;;;15.30;74.40;;;;;;4973355;28;19941;-83
2023/07/26 03:26:05;;;;;;;;;;;15.30;74.40;;;;;;4962054;29;19926;-84
2023/07/26 03:28:31;;;;;;;;;;;15.30;74.40;;;;;;4952594;29;19997;-84
2023/07/26 03:30:56;;;;;;;;;;;15.30;74.40;;;;;;4953034;28;19926;-84
2023/07/26 03:33:22;;;;;;;;;;;15.30;74.40;;;;;;4954155;28;19921;-84
2023/07/26 03:35:47;;;;;;;;;;;15.30;74.40;;;;;;4971770;28;19914;-83
2023/07/26 03:38:13;;;;;;;;;;;15.30;74.40;;;;;;4953081;28;19965;-83
2023/07/26 03:40:40;;;;;;;;;;;15.20;74.30;;;;;;4970275;28;19914;-83
2023/07/26 03:43:06;;;;;;;;;;;15.20;74.30;;;;;;4970419;28;19920;-83
2023/07/26 03:45:32;;;;;;;;;;;15.20;74.40;;;;;;4970231;28;20430;-83
2023/07/26 03:47:58;;;;;;;;;;;15.10;74.30;;;;;;4970183;28;20417;-82
2023/07/26 03:50:23;;;;;;;;;;;15.20;74.40;;;;;;4970059;28;19914;-83
2023/07/26 03:52:49;;;;;;;;;;;15.20;74.40;;;;;;4969931;28;19938;-83
2023/07/26 03:55:15;;;;;;;;;;;15.10;74.40;;;;;;4952820;28;19914;-84
2023/07/26 03:57:40;;;;;;;;;;;15.10;74.40;;;;;;4969858;28;19938;-83
2023/07/26 04:00:06;;;;;;;;;;;15.10;74.40;;;;;;4969957;28;20026;-84
2023/07/26 04:02:32;;;;;;;;;;;15.10;74.50;;;;;;4969889;28;19921;-83
2023/07/26 04:04:57;;;;;;;;;;;15.00;74.40;;;;;;4952460;28;19919;-83
2023/07/26 04:07:23;;;;;;;;;;;15.00;74.40;;;;;;4970017;28;20322;-83
2023/07/26 04:09:49;;;;;;;;;;;15.00;74.40;;;;;;4969845;28;19937;-84
2023/07/26 04:12:14;;;;;;;;;;;14.90;74.40;;;;;;4952592;28;19914;-83
2023/07/26 04:14:40;;;;;;;;;;;14.90;74.40;;;;;;4952798;28;19926;-83
2023/07/26 04:17:06;;;;;;;;;;;14.90;74.50;;;;;;4970169;28;19918;-83
2023/07/26 04:19:31;;;;;;;;;;;14.80;74.40;;;;;;4952435;28;19914;-83
2023/07/26 04:21:57;;;;;;;;;;;14.80;74.40;;;;;;4969772;28;19915;-83
2023/07/26 04:24:23;;;;;;;;;;;14.80;74.50;;;;;;4969848;28;19933;-83
2023/07/26 04:26:49;;;;;;;;;;;14.80;74.50;;;;;;4969727;28;20293;-83
2023/07/26 04:29:15;;;;;;;;;;;14.80;74.40;;;;;;4969390;28;19918;-83
2023/07/26 04:31:40;;;;;;;;;;;14.80;74.40;;;;;;4952303;28;20297;-82
2023/07/26 04:34:06;;;;;;;;;;;14.80;74.40;;;;;;4952214;28;19922;-83
2023/07/26 04:36:31;;;;;;;;;;;14.80;74.40;;;;;;4969673;28;20005;-84
2023/07/26 04:38:57;;;;;;;;;;;14.80;74.40;;;;;;4952103;28;20013;-83
2023/07/26 04:41:22;;;;;;;;;;;14.80;74.40;;;;;;4969531;28;19910;-83
2023/07/26 04:43:48;;;;;;;;;;;14.80;74.50;;;;;;4969338;28;19914;-83
2023/07/26 04:46:14;;;;;;;;;;;14.70;74.40;;;;;;4952338;28;19941;-83
2023/07/26 04:48:39;;;;;;;;;;;14.70;74.50;;;;;;4952233;28;19921;-83
2023/07/26 04:51:05;;;;;;;;;;;14.70;74.50;;;;;;4952273;28;19995;-83
2023/07/26 04:53:31;;;;;;;;;;;14.70;74.50;;;;;;4936235;28;19921;-84
2023/07/26 04:55:56;;;;;;;;;;;14.70;74.50;;;;;;4952055;28;20374;-77
2023/07/26 04:58:22;;;;;;;;;;;14.70;74.50;;;;;;4964025;28;19949;-83
2023/07/26 05:00:48;;;;;;;;;;;14.70;74.50;;;;;;4959593;28;19922;-84
2023/07/26 05:03:13;;;;;;;;;;;14.80;74.60;;;;;;4969300;28;19949;-84
2023/07/26 05:05:39;;;;;;;;;;;14.80;74.60;;;;;;4952125;28;19918;-84
2023/07/26 05:08:06;;;;;;;;;;;14.80;74.60;;;;;;4969374;28;19920;-84
2023/07/26 05:10:31;;;;;;;;;;;14.80;74.60;;;;;;4972226;28;19911;-83
2023/07/26 05:12:57;;;;;;;;;;;14.80;74.60;;;;;;4973873;28;19957;-83
2023/07/26 05:15:23;;;;;;;;;;;14.90;74.60;;;;;;4973767;28;19927;-83
2023/07/26 05:17:50;;;;;;;;;;;15.00;74.60;;;;;;4956138;28;19921;-83
2023/07/26 05:20:15;;;;;;;;;;;15.00;74.60;;;;;;4956320;28;19914;-83
2023/07/26 05:22:41;;;;;;;;;;;15.10;74.60;;;;;;4956336;28;20282;-83
2023/07/26 05:25:07;;;;;;;;;;;15.30;74.60;;;;;;4973712;28;19918;-83
2023/07/26 05:27:32;;;;;;;;;;;15.40;74.60;;;;;;4974418;28;19910;-83
2023/07/26 05:29:58;;;;;;;;;;;15.60;74.50;;;;;;4974430;28;19926;-83
2023/07/26 05:32:24;;;;;;;;;;;15.60;74.50;;;;;;4956432;28;20358;-83
2023/07/26 05:34:53;;;;;;;;;;;15.70;74.60;;;;;;4956380;28;20299;-83
2023/07/26 05:37:18;;;;;;;;;;;15.80;74.50;;;;;;4973881;28;19910;-83
2023/07/26 05:39:44;;;;;;;;;;;15.90;74.50;;;;;;4973209;28;20421;-84
2023/07/26 05:42:10;;;;;;;;;;;15.90;74.60;;;;;;4956122;28;20011;-83
2023/07/26 05:44:35;;;;;;;;;;;16.00;74.80;;;;;;4972985;28;19922;-83
2023/07/26 05:47:01;;;;;;;;;;;16.00;74.80;;;;;;4972757;28;19914;-83
2023/07/26 05:49:26;;;;;;;;;;;16.10;74.70;;;;;;4955340;28;19925;-83
2023/07/26 05:51:52;;;;;;;;;;;16.30;74.80;;;;;;4972515;28;19949;-82
2023/07/26 05:54:17;;;;;;;;;;;16.40;74.70;;;;;;4955328;28;19914;-83
2023/07/26 05:56:43;;;;;;;;;;;16.50;74.60;;;;;;4973014;28;19941;-83
2023/07/26 05:59:09;;;;;;;;;;;16.60;74.50;;;;;;4972537;28;19914;-83
2023/07/26 06:01:34;;;;;;;;;;;16.60;74.50;;;;;;4972797;28;19926;-84
2023/07/26 06:04:00;;;;;;;;;;;16.70;74.60;;;;;;4955422;28;20412;-83
2023/07/26 06:06:26;;;;;;;;;;;16.70;74.70;;;;;;4955171;28;19941;-84
2023/07/26 06:08:52;;;;;;;;;;;16.70;74.70;;;;;;4972414;28;19911;-84
2023/07/26 06:11:17;;;;;;;;;;;16.80;74.70;;;;;;4972934;28;19915;-84
2023/07/26 06:13:43;;;;;;;;;;;17.00;74.80;;;;;;4938920;28;20359;-84
2023/07/26 06:16:08;;;;;;;;;;;17.40;74.80;;;;;;4973523;28;20366;-83
2023/07/26 06:18:34;;;;;;;;;;;17.80;74.60;;;;;;4972314;28;19922;-84
2023/07/26 06:21:00;;;;;;;;;;;18.00;74.40;;;;;;4954798;28;20286;-84
2023/07/26 06:23:25;;;;;;;;;;;18.40;74.10;;;;;;4972217;28;19965;-84
2023/07/26 06:25:51;;;;;;;;;;;18.60;74.00;;;;;;4954622;28;19925;-84
2023/07/26 06:28:16;;;;;;;;;;;18.80;73.70;;;;;;4972518;28;20401;-83
2023/07/26 06:30:42;;;;;;;;;;;18.90;73.60;;;;;;4955128;28;20038;-84
2023/07/26 06:33:07;;;;;;;;;;;19.00;73.90;;;;;;4978503;28;19902;-83
2023/07/26 06:35:33;;;;;;;;;;;19.00;74.00;;;;;;4981825;28;19914;-83
2023/07/26 06:37:59;;;;;;;;;;;18.90;74.30;;;;;;4972296;28;20425;-83
2023/07/26 06:40:24;;;;;;;;;;;19.00;74.60;;;;;;4971807;28;19915;-82
2023/07/26 06:42:50;;;;;;;;;;;19.50;75.10;;;;;;4954953;28;19994;-82
2023/07/26 06:45:15;;;;;;;;;;;20.90;75.60;;;;;;4954933;28;19922;-82
2023/07/26 06:47:41;;;;;;;;;;;22.60;74.30;;;;;;4954289;28;19973;-82
2023/07/26 06:50:07;;;;;;;;;;;23.70;73.10;;;;;;4954166;28;20318;-82
2023/07/26 06:52:32;;;;;;;;;;;23.80;71.40;;;;;;4971299;28;19965;-80
2023/07/26 06:54:58;;;;;;;;;;;23.30;71.60;;;;;;4953278;28;20013;-81
2023/07/26 06:57:24;;;;;;;;;;;22.70;71.90;;;;;;4953781;28;19949;-75
2023/07/26 06:59:49;;;;;;;;;;;22.10;72.60;;;;;;4954599;28;20358;-81
2023/07/26 07:02:15;;;;;;;;;;;21.50;73.40;;;;;;4954102;28;19947;-82
2023/07/26 07:04:41;;;;;;;;;;;21.00;73.50;;;;;;4971621;28;20389;-81
2023/07/26 07:07:06;;;;;;;;;;;20.40;73.80;;;;;;4972031;28;19914;-82
2023/07/26 07:09:32;;;;;;;;;;;19.90;74.20;;;;;;4953823;28;19918;-82
2023/07/26 07:11:58;;;;;;;;;;;19.60;74.60;;;;;;4970953;28;20327;-82
2023/07/26 07:14:23;;;;;;;;;;;19.20;74.70;;;;;;4970902;28;20064;-81
2023/07/26 07:16:49;;;;;;;;;;;18.90;75.10;;;;;;4971296;28;19922;-81
2023/07/26 07:19:15;;;;;;;;;;;18.70;75.30;;;;;;4971206;28;19925;-81
2023/07/26 07:21:41;;;;;;;;;;;18.60;75.50;;;;;;4970834;28;19914;-82
2023/07/26 07:24:06;;;;;;;;;;;18.50;75.50;;;;;;4971033;28;19914;-82
2023/07/26 07:26:32;;;;;;;;;;;18.50;75.50;;;;;;4970796;28;20362;-80
2023/07/26 07:28:57;;;;;;;;;;;18.40;75.40;;;;;;4970956;28;19914;-82
2023/07/26 07:31:23;;;;;;;;;;;18.30;75.50;;;;;;4970614;28;19957;-81
2023/07/26 07:33:49;;;;;;;;;;;18.20;75.40;;;;;;4970127;28;19921;-81
2023/07/26 07:36:18;;;;;;;;;;;18.10;75.30;;;;;;4953142;28;19918;-81
2023/07/26 07:38:44;;;;;;;;;;;18.10;75.50;;;;;;4970948;28;19914;-82
2023/07/26 07:41:10;;;;;;;;;;;18.00;75.50;;;;;;4952909;28;19968;-81
2023/07/26 07:43:35;;;;;;;;;;;18.00;75.60;;;;;;4970241;28;19922;-81
2023/07/26 07:46:01;;;;;;;;;;;17.90;75.60;;;;;;4970030;28;19921;-82
2023/07/26 07:48:27;;;;;;;;;;;17.90;75.60;;;;;;4969982;28;19914;-82
2023/07/26 07:50:53;;;;;;;;;;;18.00;75.70;;;;;;4952892;28;19967;-81
2023/07/26 07:53:19;;;;;;;;;;;18.00;75.80;;;;;;4952385;28;20393;-82
2023/07/26 07:55:44;;;;;;;;;;;18.00;75.50;;;;;;4936737;28;19918;-82
2023/07/26 07:58:10;;;;;;;;;;;18.00;75.50;;;;;;4968606;28;19993;-82
2023/07/26 08:00:36;;;;;;;;;;;17.90;75.60;;;;;;4969908;28;19918;-81
2023/07/26 08:03:03;;;;;;;;;;;17.90;75.70;;;;;;4970039;28;19914;-82
2023/07/26 08:05:28;;;;;;;;;;;17.90;75.70;;;;;;4969785;28;20001;-80
2023/07/26 08:07:54;;;;;;;;;;;18.00;75.70;;;;;;4970764;28;20400;-83
2023/07/26 08:10:20;;;;;;;;;;;18.10;75.80;;;;;;4938863;28;19941;-83
2023/07/26 08:12:46;;;;;;;;;;;18.10;75.50;;;;;;4979751;28;19972;-82
2023/07/26 08:15:12;;;;;;;;;;;18.00;75.60;;;;;;4952692;28;19915;-83
2023/07/26 08:17:37;;;;;;;;;;;18.00;75.60;;;;;;4969397;28;20366;-81
2023/07/26 08:20:04;;;;;;;;;;;18.00;75.50;;;;;;4969680;28;20310;-82
2023/07/26 08:22:29;;;;;;;;;;;17.90;75.60;;;;;;4951853;28;19918;-82
2023/07/26 08:24:55;;;;;;;;;;;18.00;75.60;;;;;;4969578;28;19973;-81
2023/07/26 08:27:21;;;;;;;;;;;18.00;75.70;;;;;;4969658;28;19918;-81
2023/07/26 08:29:46;;;;;;;;;;;18.00;75.80;;;;;;4952167;28;20019;-81
2023/07/26 08:32:12;;;;;;;;;;;18.00;75.80;;;;;;4969331;28;20409;-82
2023/07/26 08:34:37;;;;;;;;;;;18.10;76.00;;;;;;4969682;28;19925;-82
2023/07/26 08:37:03;;;;;;;;;;;18.20;76.00;;;;;;4971060;28;20359;-82
2023/07/26 08:39:29;;;;;;;;;;;18.30;76.00;;;;;;4969472;28;19957;-81
2023/07/26 08:41:54;;;;;;;;;;;18.40;76.00;;;;;;4952269;28;19934;-82
2023/07/26 08:44:21;;;;;;;;;;;18.50;75.90;;;;;;4968063;28;19929;-81
2023/07/26 08:46:48;;;;;;;;;;;18.50;75.90;;;;;;4969273;28;19916;-82
2023/07/26 08:49:13;;;;;;;;;;;18.50;76.00;;;;;;4969360;28;19918;-82
2023/07/26 08:51:40;;;;;;;;;;;18.40;76.00;;;;;;4969217;28;20345;-81
2023/07/26 08:54:06;;;;;;;;;;;18.40;76.00;;;;;;4969081;28;19918;-82
2023/07/26 08:56:32;;;;;;;;;;;18.40;76.00;;;;;;4969891;28;20073;-80
2023/07/26 08:58:59;;;;;;;;;;;18.40;76.10;;;;;;4952860;28;19945;-82
2023/07/26 09:01:26;;;;;;;;;;;18.50;76.10;;;;;;4970506;28;19985;-81
2023/07/26 09:03:57;;;;;;;;;;;18.50;76.00;;;;;;4970357;28;19910;-80
2023/07/26 09:06:23;;;;;;;;;;;18.50;76.00;;;;;;4970395;28;20033;-80
2023/07/26 09:08:49;;;;;;;;;;;18.50;76.10;;;;;;4969847;28;20346;-80
2023/07/26 09:11:23;;;;;;;;;;;18.60;76.10;;;;;;4969890;28;19914;-80
2023/07/26 09:13:56;;;;;;;;;;;18.60;76.10;;;;;;4970700;28;19915;-80
2023/07/26 09:16:21;;;;;;;;;;;18.80;76.10;;;;;;4953434;28;19961;-79
2023/07/26 09:18:56;;;;;;;;;;;18.80;75.80;;;;;;4984938;28;20328;-79
2023/07/26 09:21:29;;;;;;;;;;;18.80;76.00;;;;;;4970360;28;19917;-80
2023/07/26 09:23:55;;;;;;;;;;;18.70;76.00;;;;;;4952946;28;20422;-79
2023/07/26 09:26:39;;;;;;;;;;;18.70;76.20;;;;;;4969941;28;20012;-80
2023/07/26 09:29:08;;;;;;;;;;;18.70;76.10;;;;;;4953004;28;19923;-80
2023/07/26 09:31:35;;;;;;;;;;;18.80;76.10;;;;;;4937234;28;20367;-80
2023/07/26 09:34:03;;;;;;;;;;;18.90;76.20;;;;;;4970338;28;20010;-80
2023/07/26 09:36:41;;;;;;;;;;;19.00;76.20;;;;;;4952754;28;19917;-79
2023/07/26 09:39:08;;;;;;;;;;;19.00;76.10;;;;;;4952453;28;19920;-79
2023/07/26 09:41:34;;;;;;;;;;;19.10;76.10;;;;;;4969777;28;19947;-81
2023/07/26 09:43:59;;;;;;;;;;;19.20;76.10;;;;;;4975366;28;20286;-81
2023/07/26 09:46:25;;;;;;;;;;;19.30;75.90;;;;;;4952829;28;19925;-80
2023/07/26 09:49:02;;;;;;;;;;;19.30;75.90;;;;;;4970651;28;19914;-80
2023/07/26 09:51:29;;;;;;;;;;;19.30;76.00;;;;;;4966036;28;19918;-80
2023/07/26 09:53:56;;;;;;;;;;;19.30;76.10;;;;;;4970374;28;19914;-83
2023/07/26 09:56:23;;;;;;;;;;;19.50;76.10;;;;;;4964956;28;20390;-82
2023/07/26 09:58:49;;;;;;;;;;;19.50;76.00;;;;;;4973933;28;19915;-80
2023/07/26 10:01:16;;;;;;;;;;;19.50;76.00;;;;;;4973854;28;20005;-79
2023/07/26 10:03:45;;;;;;;;;;;19.50;75.90;;;;;;4957794;28;19910;-82
2023/07/26 10:06:11;;;;;;;;;;;19.50;75.80;;;;;;4974167;28;19925;-82
2023/07/26 10:08:37;;;;;;;;;;;19.40;75.90;;;;;;4941076;28;19954;-78
2023/07/26 10:11:04;;;;;;;;;;;19.30;75.80;;;;;;4974805;28;20342;-82
2023/07/26 10:13:30;;;;;;;;;;;19.10;75.70;;;;;;4974613;28;19915;-82
2023/07/26 10:15:56;;;;;;;;;;;18.90;75.90;;;;;;4941249;28;19977;-83
2023/07/26 10:18:24;;;;;;;;;;;18.70;76.20;;;;;;4978666;28;20519;-79
2023/07/26 10:20:50;;;;;;;;;;;18.70;76.40;;;;;;4977246;28;19918;-82
2023/07/26 10:23:16;;;;;;;;;;;18.70;76.50;;;;;;4974574;28;19918;-78
2023/07/26 10:25:42;;;;;;;;;;;18.70;76.70;;;;;;4975441;28;19918;-78
2023/07/26 10:28:08;;;;;;;;;;;18.80;76.60;;;;;;4975402;28;19922;-76
2023/07/26 10:30:34;;;;;;;;;;;18.90;76.50;;;;;;4956972;28;19933;-79
2023/07/26 10:33:00;;;;;;;;;;;18.90;76.30;;;;;;4974646;28;20555;-81
2023/07/26 10:35:34;;;;;;;;;;;18.90;76.30;;;;;;4973311;28;20209;-79
2023/07/26 10:38:02;;;;;;;;;;;18.90;76.40;;;;;;4973041;28;19918;-79
2023/07/26 10:40:45;;;;;;;;;;;19.00;76.30;;;;;;4955721;28;19914;-80
2023/07/26 10:43:20;;;;;;;;;;;19.00;76.40;;;;;;4974635;28;19937;-76
2023/07/26 10:45:47;;;;;;;;;;;19.10;76.60;;;;;;4975055;28;19918;-78
2023/07/26 10:48:34;;;;;;;;;;;19.20;76.60;;;;;;4975792;28;19914;-81
2023/07/26 10:51:19;;;;;;;;;;;19.40;76.60;;;;;;4974304;28;19914;-76
2023/07/26 10:53:45;;;;;;;;;;;19.50;76.60;;;;;;4972267;28;19914;-78
2023/07/26 10:56:12;;;;;;;;;;;19.70;76.50;;;;;;4973091;28;19969;-81
2023/07/26 10:58:56;;;;;;;;;;;19.80;76.50;;;;;;4974819;28;19914;-83
2023/07/26 11:01:37;;;;;;;;;;;20.00;76.50;;;;;;4978948;28;19914;-82
2023/07/26 11:04:08;;;;;;;;;;;20.20;76.40;;;;;;4956098;28;19910;-81
2023/07/26 11:06:49;;;;;;;;;;;20.30;76.20;;;;;;4973362;28;19961;-82
2023/07/26 11:09:19;;;;;;;;;;;20.40;76.10;;;;;;4972463;28;19918;-81
2023/07/26 11:11:58;;;;;;;;;;;20.50;76.10;;;;;;4972084;28;19969;-81
2023/07/26 11:14:25;;;;;;;;;;;20.50;76.10;;;;;;4949494;28;19918;-82
2023/07/26 11:16:51;;;;;;;;;;;20.70;76.50;;;;;;4972644;28;20250;-79
2023/07/26 11:19:16;;;;;;;;;;;20.90;76.20;;;;;;4956076;28;19961;-80
2023/07/26 11:21:43;;;;;;;;;;;20.90;76.00;;;;;;4972250;28;19919;-75
2023/07/26 11:24:09;;;;;;;;;;;21.00;76.10;;;;;;4955315;28;19910;-75
2023/07/26 11:26:42;;;;;;;;;;;21.20;76.00;;;;;;4974301;28;20382;-80
2023/07/26 11:29:08;;;;;;;;;;;21.20;75.90;;;;;;4955112;28;19973;-80
2023/07/26 11:31:34;;;;;;;;;;;21.20;75.80;;;;;;4973162;28;19914;-82
2023/07/26 11:34:11;;;;;;;;;;;21.20;75.90;;;;;;4973195;28;20005;-78
2023/07/26 11:36:37;;;;;;;;;;;21.30;76.10;;;;;;4971587;28;19919;-78
2023/07/26 11:39:03;;;;;;;;;;;21.30;76.20;;;;;;4972638;28;19925;-79
2023/07/26 11:41:28;;;;;;;;;;;21.40;76.10;;;;;;4971604;28;19914;-79
2023/07/26 11:43:54;;;;;;;;;;;21.50;76.00;;;;;;4971944;28;19928;-77
2023/07/26 11:46:27;;;;;;;;;;;21.40;75.90;;;;;;4972042;28;20000;-79
2023/07/26 11:48:53;;;;;;;;;;;21.20;76.00;;;;;;4972420;28;19932;-80
2023/07/26 11:51:19;;;;;;;;;;;21.20;76.30;;;;;;4972853;28;19918;-77
2023/07/26 11:53:46;;;;;;;;;;;21.20;76.30;;;;;;4954693;28;20379;-76
2023/07/26 11:56:14;;;;;;;;;;;21.20;76.40;;;;;;4971463;28;19993;-76
2023/07/26 11:58:41;;;;;;;;;;;21.10;76.50;;;;;;4971142;28;19910;-78
2023/07/26 12:01:07;;;;;;;;;;;21.10;76.60;;;;;;4971241;28;19969;-77
2023/07/26 12:03:32;;;;;;;;;;;21.10;76.50;;;;;;4954599;28;19910;-78
2023/07/26 12:05:58;;;;;;;;;;;21.10;76.60;;;;;;4971868;28;19953;-71
2023/07/26 12:08:28;;;;;;;;;;;21.10;76.50;;;;;;4971004;28;19949;-75
2023/07/26 12:10:54;;;;;;;;;;;21.00;76.40;;;;;;4953219;28;19937;-76
2023/07/26 12:13:21;;;;;;;;;;;20.90;76.50;;;;;;4953283;28;19914;-75
2023/07/26 12:15:49;;;;;;;;;;;20.80;76.40;;;;;;4953001;28;20307;-75
2023/07/26 12:18:14;;;;;;;;;;;20.70;76.50;;;;;;4969582;28;19984;-75
2023/07/26 12:20:53;;;;;;;;;;;20.60;76.60;;;;;;4969600;28;20019;-75
2023/07/26 12:23:19;;;;;;;;;;;20.60;76.80;;;;;;4970958;28;20336;-74
2023/07/26 12:25:44;;;;;;;;;;;20.50;76.80;;;;;;4985845;28;19992;-76
2023/07/26 12:28:11;;;;;;;;;;;20.60;76.90;;;;;;4970334;28;20298;-76
2023/07/26 12:30:37;;;;;;;;;;;20.60;76.80;;;;;;4985391;28;19926;-74
2023/07/26 12:33:12;;;;;;;;;;;20.60;76.80;;;;;;4952856;28;19910;-75
2023/07/26 12:35:39;;;;;;;;;;;20.60;76.80;;;;;;4966552;28;19946;-73
2023/07/26 12:38:08;;;;;;;;;;;20.50;76.80;;;;;;4942820;29;20321;-75
2023/07/26 12:40:34;;;;;;;;;;;20.50;76.80;;;;;;4950893;28;19998;-74
2023/07/26 12:42:59;;;;;;;;;;;20.50;76.80;;;;;;4965426;28;20062;-73
2023/07/26 12:45:25;;;;;;;;;;;20.50;76.70;;;;;;4950378;29;19922;-74
2023/07/26 12:47:50;;;;;;;;;;;20.40;76.70;;;;;;4965629;28;19914;-75
2023/07/26 12:50:16;;;;;;;;;;;20.30;76.70;;;;;;4951058;28;19919;-75
2023/07/26 12:52:42;;;;;;;;;;;20.30;76.80;;;;;;4949979;29;19921;-77
2023/07/26 12:55:07;;;;;;;;;;;20.30;76.80;;;;;;4967893;28;19921;-75
2023/07/26 12:57:34;;;;;;;;;;;20.20;76.70;;;;;;4953357;28;19969;-77
2023/07/26 12:59:59;;;;;;;;;;;20.20;76.80;;;;;;4969639;28;19950;-74
2023/07/26 13:02:25;;;;;;;;;;;20.10;76.80;;;;;;4952938;28;20311;-75
2023/07/26 13:04:50;;;;;;;;;;;20.10;76.80;;;;;;4953353;28;20005;-74
2023/07/26 13:07:16;;;;;;;;;;;20.10;76.90;;;;;;4953583;28;19952;-77
2023/07/26 13:09:42;;;;;;;;;;;20.00;76.90;;;;;;4937614;28;19914;-76
2023/07/26 13:12:07;;;;;;;;;;;20.00;76.90;;;;;;4953514;28;19965;-73
2023/07/26 13:14:33;;;;;;;;;;;19.90;76.80;;;;;;4957466;28;20275;-74
2023/07/26 13:16:59;;;;;;;;;;;19.90;76.80;;;;;;4953253;28;19921;-77
2023/07/26 13:19:25;;;;;;;;;;;19.80;76.70;;;;;;4952852;28;20024;-75
2023/07/26 13:21:51;;;;;;;;;;;19.60;76.80;;;;;;4970648;28;20359;-74
2023/07/26 13:24:16;;;;;;;;;;;19.40;77.00;;;;;;4970660;28;19915;-75
2023/07/26 13:26:42;;;;;;;;;;;19.30;77.30;;;;;;4970186;28;19918;-75
2023/07/26 13:29:07;;;;;;;;;;;19.30;77.50;;;;;;4948279;28;20290;-74
2023/07/26 13:31:33;;;;;;;;;;;19.30;77.60;;;;;;4954697;28;19986;-74
2023/07/26 13:33:59;;;;;;;;;;;19.40;77.60;;;;;;4955225;28;20385;-73
2023/07/26 13:36:25;;;;;;;;;;;19.50;77.70;;;;;;4973251;28;19918;-74
2023/07/26 13:38:51;;;;;;;;;;;19.50;77.50;;;;;;4956159;28;19915;-74
2023/07/26 13:41:17;;;;;;;;;;;19.50;77.40;;;;;;4965226;28;19969;-73
2023/07/26 13:43:42;;;;;;;;;;;19.50;77.40;;;;;;4956739;28;19918;-74
2023/07/26 13:46:08;;;;;;;;;;;19.50;77.30;;;;;;4973835;28;19919;-72
2023/07/26 13:48:33;;;;;;;;;;;19.50;77.20;;;;;;4952006;28;20360;-71
2023/07/26 13:50:59;;;;;;;;;;;19.50;77.20;;;;;;4965293;28;20133;-74
2023/07/26 13:53:24;;;;;;;;;;;19.50;77.20;;;;;;4956108;28;19926;-74
2023/07/26 13:55:50;;;;;;;;;;;19.40;77.10;;;;;;4977284;28;19914;-75
2023/07/26 13:58:16;;;;;;;;;;;19.40;77.10;;;;;;4973127;28;19937;-74
2023/07/26 14:00:42;;;;;;;;;;;19.40;77.10;;;;;;4984596;28;19914;-74
2023/07/26 14:03:07;;;;;;;;;;;19.30;77.00;;;;;;4972616;28;19961;-75
2023/07/26 14:05:33;;;;;;;;;;;19.20;76.80;;;;;;4939988;28;19965;-77
2023/07/26 14:07:58;;;;;;;;;;;19.00;76.70;;;;;;4956035;28;19914;-74
2023/07/26 14:10:24;;;;;;;;;;;18.90;76.70;;;;;;4955720;28;20017;-75
2023/07/26 14:12:50;;;;;;;;;;;18.70;77.00;;;;;;4973479;28;19914;-73